sensor_id;sensor_type;location;lat;lon;timestamp;pressure;altitude;pressure_sealevel;temperature;humidity
60371;BME280;48550;40.588;49.684;2023-06-10T00:01:42;101251.81;;;20.21;100.00
60371;BME280;48550;40.588;49.684;2023-06-10T00:04:08;101249.38;;;20.19;100.00
60371;BME280;48550;40.588;49.684;2023-06-10T00:06:34;101250.47;;;20.18;100.00
60371;BME280;48550;40.588;49.684;2023-06-10T00:09:04;101235.78;;;20.14;100.00
60371;BME280;48550;40.588;49.684;2023-06-10T00:11:33;101241.50;;;20.13;100.00
60371;BME280;48550;40.588;49.684;2023-06-10T00:13:59;101233.06;;;20.14;100.00
60371;BME280;48550;40.588;49.684;2023-06-10T00:16:25;101236.06;;;20.13;100.00
60371;BME280;48550;40.588;49.684;2023-06-10T00:18:51;101230.84;;;20.16;100.00
60371;BME280;48550;40.588;49.684;2023-06-10T00:21:17;101234.97;;;20.14;100.00
60371;BME280;48550;40.588;49.684;2023-06-10T00:23:44;101233.34;;;20.13;100.00
60371;BME280;48550;40.588;49.684;2023-06-10T00:26:10;101229.00;;;20.12;100.00
60371;BME280;48550;40.588;49.684;2023-06-10T00:28:36;101230.63;;;20.13;100.00
60371;BME280;48550;40.588;49.684;2023-06-10T00:31:01;101227.88;;;20.13;100.00
60371;BME280;48550;40.588;49.684;2023-06-10T00:33:28;101245.63;;;20.10;100.00
60371;BME280;48550;40.588;49.684;2023-06-10T00:35:54;101236.34;;;20.11;100.00
60371;BME280;48550;40.588;49.684;2023-06-10T00:38:20;101242.63;;;20.12;100.00
60371;BME280;48550;40.588;49.684;2023-06-10T00:40:45;101229.28;;;20.10;100.00
60371;BME280;48550;40.588;49.684;2023-06-10T00:43:11;101230.34;;;20.14;100.00
60371;BME280;48550;40.588;49.684;2023-06-10T00:45:37;101230.84;;;20.16;100.00
60371;BME280;48550;40.588;49.684;2023-06-10T00:48:03;101233.84;;;20.20;100.00
60371;BME280;48550;40.588;49.684;2023-06-10T00:50:29;101240.88;;;20.26;100.00
60371;BME280;48550;40.588;49.684;2023-06-10T00:52:56;101239.28;;;20.20;100.00
60371;BME280;48550;40.588;49.684;2023-06-10T00:55:23;101243.34;;;20.22;100.00
60371;BME280;48550;40.588;49.684;2023-06-10T00:57:50;101249.03;;;20.26;100.00
60371;BME280;48550;40.588;49.684;2023-06-10T01:00:17;101248.56;;;20.19;100.00
60371;BME280;48550;40.588;49.684;2023-06-10T01:02:43;101238.47;;;20.19;100.00
60371;BME280;48550;40.588;49.684;2023-06-10T01:05:09;101227.31;;;20.16;100.00
60371;BME280;48550;40.588;49.684;2023-06-10T01:10:32;101238.22;;;20.16;100.00
60371;BME280;48550;40.588;49.684;2023-06-10T01:13:03;101248.31;;;20.15;100.00
60371;BME280;48550;40.588;49.684;2023-06-10T01:15:33;101242.53;;;20.22;100.00
60371;BME280;48550;40.588;49.684;2023-06-10T01:18:03;101234.59;;;20.25;100.00
60371;BME280;48550;40.588;49.684;2023-06-10T01:20:31;101238.66;;;20.28;100.00
60371;BME280;48550;40.588;49.684;2023-06-10T01:23:01;101247.63;;;20.34;100.00
60371;BME280;48550;40.588;49.684;2023-06-10T01:25:29;101245.72;;;20.34;100.00
60371;BME280;48550;40.588;49.684;2023-06-10T01:28:12;101245.72;;;20.34;100.00
60371;BME280;48550;40.588;49.684;2023-06-10T01:31:20;101251.09;;;20.44;100.00
60371;BME280;48550;40.588;49.684;2023-06-10T01:33:52;101252.44;;;20.47;100.00
60371;BME280;48550;40.588;49.684;2023-06-10T01:36:21;101252.16;;;20.48;100.00
60371;BME280;48550;40.588;49.684;2023-06-10T01:38:48;101254.84;;;20.53;100.00
60371;BME280;48550;40.588;49.684;2023-06-10T01:41:19;101264.09;;;20.57;100.00
60371;BME280;48550;40.588;49.684;2023-06-10T01:43:47;101258.59;;;20.62;100.00
60371;BME280;48550;40.588;49.684;2023-06-10T01:46:13;101254.19;;;20.67;100.00
60371;BME280;48550;40.588;49.684;2023-06-10T01:48:41;101265.63;;;20.69;100.00
60371;BME280;48550;40.588;49.684;2023-06-10T01:51:07;101263.13;;;20.72;100.00
60371;BME280;48550;40.588;49.684;2023-06-10T01:53:33;101269.88;;;20.80;100.00
60371;BME280;48550;40.588;49.684;2023-06-10T01:55:59;101272.53;;;20.90;100.00
60371;BME280;48550;40.588;49.684;2023-06-10T01:58:25;101271.72;;;20.89;100.00
60371;BME280;48550;40.588;49.684;2023-06-10T02:00:51;101273.63;;;20.89;100.00
60371;BME280;48550;40.588;49.684;2023-06-10T02:03:16;101270.38;;;20.87;100.00
60371;BME280;48550;40.588;49.684;2023-06-10T02:05:42;101266.56;;;20.88;100.00
60371;BME280;48550;40.588;49.684;2023-06-10T02:08:08;101252.97;;;20.83;100.00
60371;BME280;48550;40.588;49.684;2023-06-10T02:10:34;101275.75;;;20.97;100.00
60371;BME280;48550;40.588;49.684;2023-06-10T02:12:59;101270.34;;;21.16;100.00
60371;BME280;48550;40.588;49.684;2023-06-10T02:15:25;101267.75;;;21.30;100.00
60371;BME280;48550;40.588;49.684;2023-06-10T02:17:52;101268.97;;;21.42;100.00
60371;BME280;48550;40.588;49.684;2023-06-10T02:20:17;101277.81;;;21.58;100.00
60371;BME280;48550;40.588;49.684;2023-06-10T02:22:43;101280.56;;;21.77;100.00
60371;BME280;48550;40.588;49.684;2023-06-10T02:25:09;101284.06;;;21.82;100.00
60371;BME280;48550;40.588;49.684;2023-06-10T02:27:35;101285.84;;;22.11;100.00
60371;BME280;48550;40.588;49.684;2023-06-10T02:30:01;101279.72;;;22.38;100.00
60371;BME280;48550;40.588;49.684;2023-06-10T02:32:26;101285.88;;;22.62;100.00
60371;BME280;48550;40.588;49.684;2023-06-10T02:34:53;101284.50;;;22.78;100.00
60371;BME280;48550;40.588;49.684;2023-06-10T02:37:19;101288.66;;;22.76;100.00
60371;BME280;48550;40.588;49.684;2023-06-10T02:39:45;101271.06;;;22.82;100.00
60371;BME280;48550;40.588;49.684;2023-06-10T02:42:11;101276.69;;;22.72;100.00
60371;BME280;48550;40.588;49.684;2023-06-10T02:44:37;101276.69;;;22.72;100.00
60371;BME280;48550;40.588;49.684;2023-06-10T02:47:04;101275.19;;;22.79;100.00
60371;BME280;48550;40.588;49.684;2023-06-10T02:49:29;101269.47;;;22.95;100.00
60371;BME280;48550;40.588;49.684;2023-06-10T02:51:55;101271.69;;;22.93;100.00
60371;BME280;48550;40.588;49.684;2023-06-10T02:54:25;101273.38;;;23.07;100.00
60371;BME280;48550;40.588;49.684;2023-06-10T02:56:52;101263.91;;;23.00;100.00
60371;BME280;48550;40.588;49.684;2023-06-10T02:59:18;101270.19;;;23.00;100.00
60371;BME280;48550;40.588;49.684;2023-06-10T03:01:45;101270.16;;;22.87;100.00
60371;BME280;48550;40.588;49.684;2023-06-10T03:04:11;101265.44;;;23.06;100.00
60371;BME280;48550;40.588;49.684;2023-06-10T03:06:39;101264.53;;;23.10;100.00
60371;BME280;48550;40.588;49.684;2023-06-10T03:09:06;101276.50;;;23.14;100.00
60371;BME280;48550;40.588;49.684;2023-06-10T03:11:35;101271.75;;;23.06;100.00
60371;BME280;48550;40.588;49.684;2023-06-10T03:14:01;101279.91;;;22.93;100.00
60371;BME280;48550;40.588;49.684;2023-06-10T03:16:26;101288.06;;;22.79;100.00
60371;BME280;48550;40.588;49.684;2023-06-10T03:18:53;101281.31;;;22.90;100.00
60371;BME280;48550;40.588;49.684;2023-06-10T03:21:19;101273.16;;;23.04;100.00
60371;BME280;48550;40.588;49.684;2023-06-10T03:23:45;101282.00;;;23.14;100.00
60371;BME280;48550;40.588;49.684;2023-06-10T03:26:11;101281.06;;;23.33;100.00
60371;BME280;48550;40.588;49.684;2023-06-10T03:28:39;101292.13;;;24.32;100.00
60371;BME280;48550;40.588;49.684;2023-06-10T03:31:08;101289.38;;;24.32;100.00
60371;BME280;48550;40.588;49.684;2023-06-10T03:33:34;101292.94;;;24.33;100.00
60371;BME280;48550;40.588;49.684;2023-06-10T03:36:01;101279.25;;;24.19;100.00
60371;BME280;48550;40.588;49.684;2023-06-10T03:38:27;101289.78;;;23.76;100.00
60371;BME280;48550;40.588;49.684;2023-06-10T03:40:53;101292.50;;;24.03;100.00
60371;BME280;48550;40.588;49.684;2023-06-10T03:43:20;101289.38;;;24.77;100.00
60371;BME280;48550;40.588;49.684;2023-06-10T03:45:45;101297.16;;;24.39;100.00
60371;BME280;48550;40.588;49.684;2023-06-10T03:48:11;101291.63;;;24.75;100.00
60371;BME280;48550;40.588;49.684;2023-06-10T03:50:37;101300.22;;;24.37;100.00
60371;BME280;48550;40.588;49.684;2023-06-10T03:53:03;101301.47;;;25.69;100.00
60371;BME280;48550;40.588;49.684;2023-06-10T03:55:28;101307.16;;;25.90;100.00
60371;BME280;48550;40.588;49.684;2023-06-10T03:57:54;101298.03;;;25.24;100.00
60371;BME280;48550;40.588;49.684;2023-06-10T04:00:20;101306.91;;;25.60;100.00
60371;BME280;48550;40.588;49.684;2023-06-10T04:02:47;101307.97;;;26.85;100.00
60371;BME280;48550;40.588;49.684;2023-06-10T04:05:18;101307.38;;;27.94;100.00
60371;BME280;48550;40.588;49.684;2023-06-10T04:07:47;101308.09;;;28.33;100.00
60371;BME280;48550;40.588;49.684;2023-06-10T04:10:14;101321.09;;;28.65;100.00
60371;BME280;48550;40.588;49.684;2023-06-10T04:12:41;101316.28;;;29.07;94.54
60371;BME280;48550;40.588;49.684;2023-06-10T04:15:07;101320.69;;;29.21;94.44
60371;BME280;48550;40.588;49.684;2023-06-10T04:17:34;101317.59;;;29.22;93.46
60371;BME280;48550;40.588;49.684;2023-06-10T04:19:59;101319.59;;;28.35;99.04
60371;BME280;48550;40.588;49.684;2023-06-10T04:22:26;101311.81;;;27.87;100.00
60371;BME280;48550;40.588;49.684;2023-06-10T04:24:52;101308.25;;;29.27;89.54
60371;BME280;48550;40.588;49.684;2023-06-10T04:27:18;101307.00;;;29.49;88.03
60371;BME280;48550;40.588;49.684;2023-06-10T04:29:44;101320.22;;;30.44;77.49
60371;BME280;48550;40.588;49.684;2023-06-10T04:32:10;101316.25;;;30.57;70.46
60371;BME280;48550;40.588;49.684;2023-06-10T04:34:36;101319.13;;;30.89;67.38
60371;BME280;48550;40.588;49.684;2023-06-10T04:37:05;101312.84;;;30.48;70.60
60371;BME280;48550;40.588;49.684;2023-06-10T04:39:31;101319.72;;;31.26;63.12
60371;BME280;48550;40.588;49.684;2023-06-10T04:41:57;101316.28;;;30.17;70.96
60371;BME280;48550;40.588;49.684;2023-06-10T04:44:23;101313.41;;;30.42;69.89
60371;BME280;48550;40.588;49.684;2023-06-10T04:46:51;101317.25;;;31.09;63.54
60371;BME280;48550;40.588;49.684;2023-06-10T04:49:17;101309.72;;;31.09;63.82
60371;BME280;48550;40.588;49.684;2023-06-10T04:51:42;101308.94;;;30.93;60.84
60371;BME280;48550;40.588;49.684;2023-06-10T04:54:08;101305.53;;;30.84;62.95
60371;BME280;48550;40.588;49.684;2023-06-10T04:56:34;101308.00;;;30.05;67.01
60371;BME280;48550;40.588;49.684;2023-06-10T04:59:00;101307.19;;;30.73;62.29
60371;BME280;48550;40.588;49.684;2023-06-10T05:01:26;101302.38;;;30.01;68.22
60371;BME280;48550;40.588;49.684;2023-06-10T05:03:53;101306.00;;;31.17;62.65
60371;BME280;48550;40.588;49.684;2023-06-10T05:06:18;101298.47;;;31.02;60.75
60371;BME280;48550;40.588;49.684;2023-06-10T05:08:44;101300.84;;;31.32;59.88
60371;BME280;48550;40.588;49.684;2023-06-10T05:11:10;101293.53;;;30.95;61.25
60371;BME280;48550;40.588;49.684;2023-06-10T05:13:35;101295.25;;;30.28;65.41
60371;BME280;48550;40.588;49.684;2023-06-10T05:16:01;101296.41;;;30.55;61.07
60371;BME280;48550;40.588;49.684;2023-06-10T05:18:27;101299.19;;;30.55;60.51
60371;BME280;48550;40.588;49.684;2023-06-10T05:20:53;101295.16;;;30.81;59.61
60371;BME280;48550;40.588;49.684;2023-06-10T05:23:21;101285.13;;;31.08;55.23
60371;BME280;48550;40.588;49.684;2023-06-10T05:25:47;101283.31;;;30.68;56.39
60371;BME280;48550;40.588;49.684;2023-06-10T05:28:13;101280.94;;;30.26;58.91
60371;BME280;48550;40.588;49.684;2023-06-10T05:30:41;101294.16;;;30.73;58.23
60371;BME280;48550;40.588;49.684;2023-06-10T05:33:07;101298.38;;;30.27;60.34
60371;BME280;48550;40.588;49.684;2023-06-10T05:35:33;101290.59;;;30.32;60.81
60371;BME280;48550;40.588;49.684;2023-06-10T05:37:59;101287.41;;;30.58;59.16
60371;BME280;48550;40.588;49.684;2023-06-10T05:40:24;101282.91;;;30.26;61.91
60371;BME280;48550;40.588;49.684;2023-06-10T05:42:50;101283.19;;;31.40;56.89
60371;BME280;48550;40.588;49.684;2023-06-10T05:45:16;101285.28;;;31.27;53.58
60371;BME280;48550;40.588;49.684;2023-06-10T05:47:42;101290.91;;;30.43;54.78
60371;BME280;48550;40.588;49.684;2023-06-10T05:50:08;101287.44;;;30.46;53.73
60371;BME280;48550;40.588;49.684;2023-06-10T05:52:35;101302.78;;;30.44;54.18
60371;BME280;48550;40.588;49.684;2023-06-10T05:55:07;101298.38;;;30.55;54.59
60371;BME280;48550;40.588;49.684;2023-06-10T05:57:33;101294.00;;;30.54;56.09
60371;BME280;48550;40.588;49.684;2023-06-10T05:59:59;101300.94;;;30.48;56.08
60371;BME280;48550;40.588;49.684;2023-06-10T06:02:25;101302.50;;;30.33;55.60
60371;BME280;48550;40.588;49.684;2023-06-10T06:04:51;101286.97;;;30.44;56.42
60371;BME280;48550;40.588;49.684;2023-06-10T06:07:16;101280.47;;;30.64;53.95
60371;BME280;48550;40.588;49.684;2023-06-10T06:09:42;101288.78;;;30.64;53.09
60371;BME280;48550;40.588;49.684;2023-06-10T06:12:08;101283.97;;;30.77;53.39
60371;BME280;48550;40.588;49.684;2023-06-10T06:14:38;101282.16;;;30.69;53.81
60371;BME280;48550;40.588;49.684;2023-06-10T06:17:07;101278.63;;;30.56;53.97
60371;BME280;48550;40.588;49.684;2023-06-10T06:19:33;101282.13;;;30.53;52.54
60371;BME280;48550;40.588;49.684;2023-06-10T06:21:59;101276.88;;;31.23;51.17
60371;BME280;48550;40.588;49.684;2023-06-10T06:24:25;101281.88;;;30.46;52.94
60371;BME280;48550;40.588;49.684;2023-06-10T06:26:50;101288.81;;;30.96;50.66
60371;BME280;48550;40.588;49.684;2023-06-10T06:29:16;101280.22;;;31.01;49.65
60371;BME280;48550;40.588;49.684;2023-06-10T06:31:42;101285.22;;;30.80;51.78
60371;BME280;48550;40.588;49.684;2023-06-10T06:34:08;101278.47;;;31.24;49.22
60371;BME280;48550;40.588;49.684;2023-06-10T06:36:33;101282.22;;;30.57;50.19
60371;BME280;48550;40.588;49.684;2023-06-10T06:39:01;101282.56;;;30.55;49.74
60371;BME280;48550;40.588;49.684;2023-06-10T06:41:27;101285.38;;;30.71;49.48
60371;BME280;48550;40.588;49.684;2023-06-10T06:43:54;101272.44;;;31.07;47.11
60371;BME280;48550;40.588;49.684;2023-06-10T06:46:20;101270.81;;;30.74;49.02
60371;BME280;48550;40.588;49.684;2023-06-10T06:48:47;101272.16;;;30.96;46.96
60371;BME280;48550;40.588;49.684;2023-06-10T06:51:13;101267.53;;;31.00;46.14
60371;BME280;48550;40.588;49.684;2023-06-10T06:53:39;101271.47;;;30.99;46.04
60371;BME280;48550;40.588;49.684;2023-06-10T06:56:10;101253.94;;;30.79;48.09
60371;BME280;48550;40.588;49.684;2023-06-10T06:58:36;101252.91;;;30.56;46.25
60371;BME280;48550;40.588;49.684;2023-06-10T07:01:02;101258.84;;;31.02;45.64
60371;BME280;48550;40.588;49.684;2023-06-10T07:03:28;101256.16;;;31.05;43.48
60371;BME280;48550;40.588;49.684;2023-06-10T07:05:54;101266.72;;;31.47;42.49
60371;BME280;48550;40.588;49.684;2023-06-10T07:08:19;101253.94;;;30.95;43.86
60371;BME280;48550;40.588;49.684;2023-06-10T07:10:45;101237.22;;;31.74;40.10
60371;BME280;48550;40.588;49.684;2023-06-10T07:13:11;101244.56;;;31.15;42.18
60371;BME280;48550;40.588;49.684;2023-06-10T07:15:38;101235.53;;;31.34;42.42
60371;BME280;48550;40.588;49.684;2023-06-10T07:18:04;101232.59;;;30.52;42.52
60371;BME280;48550;40.588;49.684;2023-06-10T07:20:30;101222.38;;;30.68;42.83
60371;BME280;48550;40.588;49.684;2023-06-10T07:22:55;101223.09;;;30.81;42.88
60371;BME280;48550;40.588;49.684;2023-06-10T07:25:21;101224.22;;;31.43;41.61
60371;BME280;48550;40.588;49.684;2023-06-10T07:27:47;101230.69;;;31.66;40.99
60371;BME280;48550;40.588;49.684;2023-06-10T07:30:13;101226.91;;;31.39;40.75
60371;BME280;48550;40.588;49.684;2023-06-10T07:32:39;101226.41;;;31.34;40.98
60371;BME280;48550;40.588;49.684;2023-06-10T07:35:08;101220.84;;;31.02;42.09
60371;BME280;48550;40.588;49.684;2023-06-10T07:37:35;101212.66;;;31.21;41.35
60371;BME280;48550;40.588;49.684;2023-06-10T07:40:02;101213.78;;;31.36;41.00
60371;BME280;48550;40.588;49.684;2023-06-10T07:42:27;101214.09;;;31.50;41.51
60371;BME280;48550;40.588;49.684;2023-06-10T07:44:53;101204.47;;;31.13;42.31
60371;BME280;48550;40.588;49.684;2023-06-10T07:47:19;101197.50;;;30.87;46.09
60371;BME280;48550;40.588;49.684;2023-06-10T07:49:45;101188.25;;;29.68;49.00
60371;BME280;48550;40.588;49.684;2023-06-10T07:52:10;101192.94;;;29.15;51.25
60371;BME280;48550;40.588;49.684;2023-06-10T07:54:36;101193.63;;;29.24;49.88
60371;BME280;48550;40.588;49.684;2023-06-10T07:57:02;101183.06;;;29.14;48.60
60371;BME280;48550;40.588;49.684;2023-06-10T07:59:28;101180.16;;;29.23;48.78
60371;BME280;48550;40.588;49.684;2023-06-10T08:01:54;101186.44;;;29.60;47.37
60371;BME280;48550;40.588;49.684;2023-06-10T08:04:20;101185.50;;;29.80;46.34
60371;BME280;48550;40.588;49.684;2023-06-10T08:06:45;101181.50;;;29.41;46.43
60371;BME280;48550;40.588;49.684;2023-06-10T08:09:11;101178.06;;;29.44;47.27
60371;BME280;48550;40.588;49.684;2023-06-10T08:11:37;101169.66;;;29.40;46.39
60371;BME280;48550;40.588;49.684;2023-06-10T08:14:03;101177.03;;;29.24;47.55
60371;BME280;48550;40.588;49.684;2023-06-10T08:16:28;101171.72;;;28.70;48.94
60371;BME280;48550;40.588;49.684;2023-06-10T08:18:54;101174.34;;;28.55;49.10
60371;BME280;48550;40.588;49.684;2023-06-10T08:21:20;101173.78;;;28.73;49.53
60371;BME280;48550;40.588;49.684;2023-06-10T08:23:45;101179.13;;;28.91;47.87
60371;BME280;48550;40.588;49.684;2023-06-10T08:26:11;101167.34;;;29.42;46.85
60371;BME280;48550;40.588;49.684;2023-06-10T08:28:37;101171.34;;;29.57;46.04
60371;BME280;48550;40.588;49.684;2023-06-10T08:31:05;101166.78;;;29.89;44.25
60371;BME280;48550;40.588;49.684;2023-06-10T08:33:31;101166.13;;;29.68;45.28
60371;BME280;48550;40.588;49.684;2023-06-10T08:35:56;101168.84;;;29.40;45.04
60371;BME280;48550;40.588;49.684;2023-06-10T08:38:22;101151.25;;;29.20;45.93
60371;BME280;48550;40.588;49.684;2023-06-10T08:40:48;101167.09;;;29.60;44.80
60371;BME280;48550;40.588;49.684;2023-06-10T08:43:22;101166.78;;;29.49;45.46
60371;BME280;48550;40.588;49.684;2023-06-10T08:45:51;101155.47;;;29.42;45.22
60371;BME280;48550;40.588;49.684;2023-06-10T08:48:21;101151.28;;;29.60;45.07
60371;BME280;48550;40.588;49.684;2023-06-10T08:50:49;101147.28;;;29.58;44.69
60371;BME280;48550;40.588;49.684;2023-06-10T08:53:18;101148.78;;;29.55;45.04
60371;BME280;48550;40.588;49.684;2023-06-10T08:55:49;101135.56;;;29.36;44.37
60371;BME280;48550;40.588;49.684;2023-06-10T08:58:17;101128.81;;;29.62;45.16
60371;BME280;48550;40.588;49.684;2023-06-10T09:00:44;101135.97;;;29.91;43.89
60371;BME280;48550;40.588;49.684;2023-06-10T09:03:10;101124.72;;;29.84;45.42
60371;BME280;48550;40.588;49.684;2023-06-10T09:05:37;101135.28;;;29.54;45.10
60371;BME280;48550;40.588;49.684;2023-06-10T09:08:05;101127.94;;;29.33;44.76
60371;BME280;48550;40.588;49.684;2023-06-10T09:10:31;101123.72;;;29.76;44.58
60371;BME280;48550;40.588;49.684;2023-06-10T09:12:57;101126.22;;;29.81;44.40
60371;BME280;48550;40.588;49.684;2023-06-10T09:15:23;101131.31;;;29.67;44.65
60371;BME280;48550;40.588;49.684;2023-06-10T09:17:49;101127.81;;;29.54;45.23
60371;BME280;48550;40.588;49.684;2023-06-10T09:20:16;101135.78;;;29.44;45.20
60371;BME280;48550;40.588;49.684;2023-06-10T09:22:42;101127.84;;;29.30;46.09
60371;BME280;48550;40.588;49.684;2023-06-10T09:25:10;101128.44;;;29.23;46.11
60371;BME280;48550;40.588;49.684;2023-06-10T09:27:50;101129.97;;;29.61;45.61
60371;BME280;48550;40.588;49.684;2023-06-10T09:30:25;101121.91;;;29.56;45.25
60371;BME280;48550;40.588;49.684;2023-06-10T09:32:53;101130.72;;;29.33;46.95
60371;BME280;48550;40.588;49.684;2023-06-10T09:35:24;101131.53;;;29.34;46.97
60371;BME280;48550;40.588;49.684;2023-06-10T09:37:55;101122.41;;;29.46;46.37
60371;BME280;48550;40.588;49.684;2023-06-10T09:40:21;101123.22;;;29.46;45.90
60371;BME280;48550;40.588;49.684;2023-06-10T09:42:53;101121.19;;;29.19;46.87
60371;BME280;48550;40.588;49.684;2023-06-10T09:45:20;101119.84;;;28.88;47.05
60371;BME280;48550;40.588;49.684;2023-06-10T09:47:51;101112.56;;;29.08;47.85
60371;BME280;48550;40.588;49.684;2023-06-10T09:50:17;101105.13;;;29.49;47.46
60371;BME280;48550;40.588;49.684;2023-06-10T09:52:45;101119.09;;;29.28;47.49
60371;BME280;48550;40.588;49.684;2023-06-10T09:55:12;101114.56;;;29.48;47.43
60371;BME280;48550;40.588;49.684;2023-06-10T09:57:37;101117.28;;;29.60;46.12
60371;BME280;48550;40.588;49.684;2023-06-10T10:00:09;101122.06;;;29.35;46.63
60371;BME280;48550;40.588;49.684;2023-06-10T10:02:49;101126.00;;;29.46;45.79
60371;BME280;48550;40.588;49.684;2023-06-10T10:05:16;101111.72;;;29.44;45.39
60371;BME280;48550;40.588;49.684;2023-06-10T10:07:43;101115.31;;;29.20;46.81
60371;BME280;48550;40.588;49.684;2023-06-10T10:10:10;101124.13;;;29.38;46.73
60371;BME280;48550;40.588;49.684;2023-06-10T10:12:37;101111.28;;;29.18;46.81
60371;BME280;48550;40.588;49.684;2023-06-10T10:15:06;101111.97;;;29.27;47.89
60371;BME280;48550;40.588;49.684;2023-06-10T10:17:34;101106.13;;;29.04;46.76
60371;BME280;48550;40.588;49.684;2023-06-10T10:20:04;101106.13;;;28.92;46.83
60371;BME280;48550;40.588;49.684;2023-06-10T10:22:40;101108.53;;;28.81;47.83
60371;BME280;48550;40.588;49.684;2023-06-10T10:25:34;101103.25;;;28.88;47.52
60371;BME280;48550;40.588;49.684;2023-06-10T10:28:15;101113.94;;;28.77;47.96
60371;BME280;48550;40.588;49.684;2023-06-10T10:30:48;101111.44;;;28.85;48.19
60371;BME280;48550;40.588;49.684;2023-06-10T10:33:26;101103.81;;;28.82;48.25
60371;BME280;48550;40.588;49.684;2023-06-10T10:35:54;101106.00;;;28.76;49.23
60371;BME280;48550;40.588;49.684;2023-06-10T10:38:21;101099.31;;;28.65;50.04
60371;BME280;48550;40.588;49.684;2023-06-10T10:40:48;101100.47;;;28.76;50.43
60371;BME280;48550;40.588;49.684;2023-06-10T10:43:15;101103.00;;;28.69;50.70
60371;BME280;48550;40.588;49.684;2023-06-10T10:45:41;101097.13;;;28.70;49.98
60371;BME280;48550;40.588;49.684;2023-06-10T10:48:09;101095.75;;;28.64;51.21
60371;BME280;48550;40.588;49.684;2023-06-10T10:50:38;101089.53;;;28.55;50.99
60371;BME280;48550;40.588;49.684;2023-06-10T10:53:05;101089.19;;;28.57;51.60
60371;BME280;48550;40.588;49.684;2023-06-10T10:55:32;101083.34;;;28.58;51.53
60371;BME280;48550;40.588;49.684;2023-06-10T10:57:59;101081.25;;;28.31;52.69
60371;BME280;48550;40.588;49.684;2023-06-10T11:00:35;101075.28;;;28.53;52.92
60371;BME280;48550;40.588;49.684;2023-06-10T11:03:05;101074.69;;;28.47;54.12
60371;BME280;48550;40.588;49.684;2023-06-10T11:08:10;101071.13;;;28.35;53.73
60371;BME280;48550;40.588;49.684;2023-06-10T11:10:38;101077.00;;;28.33;54.01
60371;BME280;48550;40.588;49.684;2023-06-10T11:13:15;101059.75;;;28.36;53.28
60371;BME280;48550;40.588;49.684;2023-06-10T11:15:45;101063.09;;;28.42;54.14
60371;BME280;48550;40.588;49.684;2023-06-10T11:18:25;101050.09;;;28.55;53.61
60371;BME280;48550;40.588;49.684;2023-06-10T11:20:53;101052.84;;;28.42;54.02
60371;BME280;48550;40.588;49.684;2023-06-10T11:31:27;101043.72;;;28.78;53.43
60371;BME280;48550;40.588;49.684;2023-06-10T11:33:58;101047.91;;;28.48;52.94
60371;BME280;48550;40.588;49.684;2023-06-10T11:36:26;101035.47;;;28.66;53.60
60371;BME280;48550;40.588;49.684;2023-06-10T11:38:57;101033.50;;;28.67;53.69
60371;BME280;48550;40.588;49.684;2023-06-10T11:41:27;101022.47;;;28.42;53.85
60371;BME280;48550;40.588;49.684;2023-06-10T11:43:57;101017.75;;;28.55;53.53
60371;BME280;48550;40.588;49.684;2023-06-10T11:46:26;101014.97;;;28.67;52.96
60371;BME280;48550;40.588;49.684;2023-06-10T11:48:54;101019.78;;;28.70;52.58
60371;BME280;48550;40.588;49.684;2023-06-10T11:51:20;101008.78;;;28.58;52.68
60371;BME280;48550;40.588;49.684;2023-06-10T11:53:50;101004.16;;;28.62;51.96
60371;BME280;48550;40.588;49.684;2023-06-10T11:56:25;101010.38;;;28.59;52.36
60371;BME280;48550;40.588;49.684;2023-06-10T11:58:57;101012.22;;;28.55;53.07
60371;BME280;48550;40.588;49.684;2023-06-10T12:01:25;100992.00;;;28.39;52.91
60371;BME280;48550;40.588;49.684;2023-06-10T12:04:17;101002.34;;;28.54;52.89
60371;BME280;48550;40.588;49.684;2023-06-10T12:06:51;100991.06;;;28.35;53.33
60371;BME280;48550;40.588;49.684;2023-06-10T12:12:04;100989.91;;;28.24;52.73
60371;BME280;48550;40.588;49.684;2023-06-10T12:14:58;100980.72;;;28.32;53.24
60371;BME280;48550;40.588;49.684;2023-06-10T12:17:36;100985.50;;;28.23;54.07
60371;BME280;48550;40.588;49.684;2023-06-10T12:22:50;100976.81;;;28.33;52.73
60371;BME280;48550;40.588;49.684;2023-06-10T12:25:16;100984.06;;;28.37;52.27
60371;BME280;48550;40.588;49.684;2023-06-10T12:27:51;100974.03;;;28.45;53.53
60371;BME280;48550;40.588;49.684;2023-06-10T12:30:19;100981.53;;;28.32;52.81
60371;BME280;48550;40.588;49.684;2023-06-10T12:32:46;100976.94;;;28.36;52.90
60371;BME280;48550;40.588;49.684;2023-06-10T12:35:19;100974.28;;;28.40;51.60
60371;BME280;48550;40.588;49.684;2023-06-10T12:38:05;100969.34;;;28.33;52.03
60371;BME280;48550;40.588;49.684;2023-06-10T12:40:37;100968.66;;;28.36;52.04
60371;BME280;48550;40.588;49.684;2023-06-10T12:43:05;100973.59;;;28.31;52.28
60371;BME280;48550;40.588;49.684;2023-06-10T12:48:08;100969.28;;;28.21;52.18
60371;BME280;48550;40.588;49.684;2023-06-10T12:50:38;100988.03;;;28.15;52.79
60371;BME280;48550;40.588;49.684;2023-06-10T12:53:05;100970.09;;;27.97;52.14
60371;BME280;48550;40.588;49.684;2023-06-10T12:55:31;100980.19;;;27.93;51.98
60371;BME280;48550;40.588;49.684;2023-06-10T12:57:58;100976.28;;;27.94;52.90
60371;BME280;48550;40.588;49.684;2023-06-10T13:00:24;100974.22;;;28.03;54.13